Aérodrome :
LOGIN :

S'inscrire | Disclaimer

   EN    FR    IT 

 










Légende :    VFR   VFR Marginal   IFR   IFR Intensif   IFR Très Intensif
Visi : 
Plafond : 
>= 8 km
>= 3000ft
5 à 8 km
1000 à 3000 ft
1500m à 5 km
500 à 1000 ft
800 à 1500m
200 à 500 ft
< 800m
< 200 ft
Symboles :   Orages  Brouillard  Fortes neiges  Fortes précipitations  Vent > 20 kt
SIGMETs :   Divers  Orages  Givrage  Turbulence  Onde Orograph.  Cendres Volcan.







- Altitude de l'aérodrome : 659 ft
- Code IATA : LGG


EBLG - Liège

DERNIER METAR :
  • 250020Z 21011KT CAVOK 14/09 Q1010 NOSIG

METARs EXPIRÉS :
  • 242350Z 21009KT CAVOK 14/08 Q1010 NOSIG
  • 242320Z 21012KT 9999 SCT048 14/08 Q1011 NOSIG
  • 242250Z 20013KT 9999 SCT048 14/08 Q1011 NOSIG
  • 242220Z 20010KT CAVOK 14/09 Q1011 NOSIG
  • 242150Z 19010KT CAVOK 15/09 Q1012 NOSIG

TAF TAF EBLG
Valide du 25 à 00h jusqu'au 26 à 06h UTC


242319Z 2500/2606 24011KT 9999 FEW012 BKN020
TEMPO 2505/2508 4500 RA SHRA SCT006 BKN009
PROB40
TEMPO 2600/2606 4000 SHRA
Pas de NOTAMs connus pour ce terrain.



MET'MAP, la Météo Aéronautique d'un coup d'oeil ! - Copyright ORBIFLY Décembre 2007 - Disclaimer

ORBIFLY MET'MAP TEAM :

Programmation & Développement : Alexandra Zaïnal
Conception & Développement : Baudouin d'Aumeries
Co-Programmation & Développement : Marc-Olivier Méhu
Soutien technique & logistique : Manuel Goepfert

Contact : metmap@orbifly.com




SOURCES & CREDITS :

   NOAA